Time;durP1;ratioP1;P1;durP2;ratioP2;P2;SDS_P1;SDS_P2;PMS_P1;PMS_P2;Temp;Humidity;BMP_temperature;BMP_pressure;BME280_temperature;BME280_humidity;BME280_pressure;Samples;Min_cycle;Max_cycle;Signal;HPM_P1;HPM_P2
2021/04/25 00:01:11;;;;;;;16.38;9.38;;;13.90;63.90;;;;;;5070729;28;20020;-71
2021/04/25 00:03:37;;;;;;;14.02;9.65;;;13.80;64.30;;;;;;5071096;28;20428;-70
2021/04/25 00:06:03;;;;;;;17.77;9.20;;;13.80;64.70;;;;;;5071110;28;20031;-71
2021/04/25 00:08:29;;;;;;;13.13;8.95;;;13.70;65.10;;;;;;5070836;28;20070;-71
2021/04/25 00:10:55;;;;;;;12.32;8.77;;;13.70;64.80;;;;;;5070506;28;20028;-71
2021/04/25 00:13:20;;;;;;;18.13;9.93;;;13.70;65.70;;;;;;5070751;28;20032;-71
2021/04/25 00:15:46;;;;;;;14.23;9.38;;;13.60;65.50;;;;;;5070485;28;20093;-70
2021/04/25 00:18:12;;;;;;;18.73;9.45;;;13.60;65.50;;;;;;5071123;28;20099;-71
2021/04/25 00:20:38;;;;;;;17.50;9.63;;;13.50;65.80;;;;;;5071064;28;20021;-70
2021/04/25 00:23:05;;;;;;;17.13;9.85;;;13.50;65.70;;;;;;5070697;28;20025;-71
2021/04/25 00:25:30;;;;;;;16.40;9.25;;;13.50;66.10;;;;;;5070894;28;20182;-71
2021/04/25 00:27:56;;;;;;;13.57;8.98;;;13.50;66.20;;;;;;5070607;28;20107;-71
2021/04/25 00:30:22;;;;;;;15.85;9.50;;;13.50;66.40;;;;;;5070872;28;20021;-70
2021/04/25 00:32:49;;;;;;;11.52;9.40;;;13.50;66.40;;;;;;5069357;28;20044;-70
2021/04/25 00:35:16;;;;;;;15.43;9.18;;;13.50;66.90;;;;;;5070660;28;20021;-70
2021/04/25 00:37:42;;;;;;;15.52;9.30;;;13.40;66.50;;;;;;5070462;28;20032;-70
2021/04/25 00:40:10;;;;;;;12.30;9.40;;;13.40;66.50;;;;;;5072299;28;20024;-70
2021/04/25 00:42:36;;;;;;;14.23;9.07;;;13.40;66.30;;;;;;5073956;28;20524;-69
2021/04/25 00:45:06;;;;;;;12.93;9.43;;;13.40;66.10;;;;;;5074400;28;20074;-71
2021/04/25 00:47:31;;;;;;;15.10;9.23;;;13.50;65.70;;;;;;5074020;28;20040;-71
2021/04/25 00:49:57;;;;;;;16.90;9.68;;;13.50;65.60;;;;;;5074228;28;20059;-70
2021/04/25 00:52:23;;;;;;;12.65;8.85;;;13.40;65.40;;;;;;5074240;28;20467;-70
2021/04/25 00:54:49;;;;;;;14.00;9.05;;;13.40;65.70;;;;;;5074313;28;20031;-70
2021/04/25 00:57:16;;;;;;;18.70;9.68;;;13.40;65.90;;;;;;5073762;28;20059;-71
2021/04/25 00:59:43;;;;;;;13.10;9.45;;;13.40;65.90;;;;;;5069127;28;20020;-71
2021/04/25 01:02:09;;;;;;;14.48;8.93;;;13.30;66.10;;;;;;5071281;28;20579;-71
2021/04/25 01:04:36;;;;;;;10.43;9.13;;;13.30;66.20;;;;;;5072621;28;20025;-71
2021/04/25 01:07:03;;;;;;;12.73;8.68;;;13.30;66.80;;;;;;5073772;28;20047;-72
2021/04/25 01:09:30;;;;;;;15.27;8.25;;;13.20;66.60;;;;;;5073720;28;20020;-72
2021/04/25 01:11:56;;;;;;;14.85;8.07;;;13.20;66.50;;;;;;5073758;28;20416;-72
2021/04/25 01:14:22;;;;;;;12.07;8.02;;;13.20;66.40;;;;;;5073195;28;20021;-72
2021/04/25 01:16:49;;;;;;;16.20;8.50;;;13.20;66.10;;;;;;5073626;28;20037;-72
2021/04/25 01:19:15;;;;;;;10.75;7.38;;;13.20;66.40;;;;;;5073559;28;20017;-71
2021/04/25 01:21:40;;;;;;;12.48;8.05;;;13.20;66.60;;;;;;5073092;28;20061;-71
2021/04/25 01:24:06;;;;;;;14.75;7.93;;;13.20;67.70;;;;;;5073025;28;20725;-71
2021/04/25 01:26:32;;;;;;;11.52;7.38;;;13.10;67.10;;;;;;5074020;28;20413;-72
2021/04/25 01:28:58;;;;;;;12.73;7.95;;;13.00;67.60;;;;;;5073222;28;20055;-71
2021/04/25 01:31:24;;;;;;;11.48;7.90;;;13.00;67.40;;;;;;5072208;28;20033;-71
2021/04/25 01:33:50;;;;;;;15.50;8.10;;;12.90;67.90;;;;;;5073267;28;20370;-72
2021/04/25 01:36:16;;;;;;;12.05;8.10;;;13.00;67.80;;;;;;5072331;28;20025;-72
2021/04/25 01:38:41;;;;;;;10.48;7.70;;;12.90;67.90;;;;;;5073036;28;20031;-71
2021/04/25 01:41:07;;;;;;;16.92;8.07;;;12.90;67.70;;;;;;5073415;28;20013;-71
2021/04/25 01:43:33;;;;;;;8.95;7.15;;;12.90;67.60;;;;;;5072850;28;20083;-72
2021/04/25 01:45:59;;;;;;;9.45;7.47;;;12.80;68.00;;;;;;5073023;28;20025;-71
2021/04/25 01:48:25;;;;;;;11.55;7.85;;;12.80;67.90;;;;;;5073166;28;20013;-71
2021/04/25 01:50:51;;;;;;;10.20;7.18;;;12.80;67.70;;;;;;5072316;28;20024;-71
2021/04/25 01:53:17;;;;;;;13.65;7.95;;;12.80;67.90;;;;;;5072898;28;20500;-72
2021/04/25 01:55:43;;;;;;;10.35;7.75;;;12.80;67.90;;;;;;5073394;28;20028;-72
2021/04/25 01:58:10;;;;;;;12.93;8.13;;;12.70;67.50;;;;;;5072437;28;20021;-71
2021/04/25 02:00:42;;;;;;;12.73;7.88;;;12.80;67.70;;;;;;5073097;28;20048;-71
2021/04/25 02:03:10;;;;;;;13.83;8.20;;;12.70;67.70;;;;;;5073146;28;20021;-71
2021/04/25 02:05:38;;;;;;;13.50;8.00;;;12.70;68.00;;;;;;5072430;28;20431;-71
2021/04/25 02:08:06;;;;;;;17.50;8.07;;;12.80;67.70;;;;;;5072467;28;20082;-70
2021/04/25 02:10:32;;;;;;;10.07;7.53;;;12.70;68.10;;;;;;5073164;28;20024;-72
2021/04/25 02:12:58;;;;;;;11.43;7.93;;;12.70;68.20;;;;;;5072479;28;20029;-72
2021/04/25 02:15:25;;;;;;;14.95;7.55;;;12.70;68.30;;;;;;5072651;28;20104;-71
2021/04/25 02:17:51;;;;;;;12.00;8.38;;;12.70;68.30;;;;;;5072489;28;20032;-72
2021/04/25 02:20:18;;;;;;;12.85;7.45;;;12.60;68.90;;;;;;5072184;28;20020;-70
2021/04/25 02:22:44;;;;;;;12.38;7.72;;;12.60;68.70;;;;;;5072327;28;20024;-70
2021/04/25 02:25:12;;;;;;;13.05;8.10;;;12.50;68.90;;;;;;5071709;28;20119;-70
2021/04/25 02:27:38;;;;;;;13.98;7.38;;;12.50;69.10;;;;;;5072339;28;20429;-71
2021/04/25 02:30:10;;;;;;;12.13;7.63;;;12.50;68.80;;;;;;5072647;28;20028;-70
2021/04/25 02:32:36;;;;;;;11.65;7.75;;;12.50;68.70;;;;;;5072382;28;20035;-71
2021/04/25 02:35:03;;;;;;;11.85;8.10;;;12.40;68.30;;;;;;5072401;28;20108;-70
2021/04/25 02:37:29;;;;;;;12.18;8.98;;;12.40;68.90;;;;;;5071532;28;20041;-70
2021/04/25 02:39:54;;;;;;;12.05;8.73;;;12.40;68.60;;;;;;5071866;28;20024;-71
2021/04/25 02:42:20;;;;;;;19.98;9.68;;;12.30;68.20;;;;;;5071750;28;20472;-71
2021/04/25 02:44:46;;;;;;;16.90;9.10;;;12.40;67.70;;;;;;5071923;28;20032;-72
2021/04/25 02:47:11;;;;;;;14.82;8.32;;;12.30;66.70;;;;;;5072098;28;20373;-70
2021/04/25 02:49:37;;;;;;;14.98;8.65;;;12.30;66.50;;;;;;5071584;28;20029;-70
2021/04/25 02:52:03;;;;;;;10.38;8.20;;;12.30;65.90;;;;;;5071422;28;20074;-71
2021/04/25 02:54:29;;;;;;;11.73;8.60;;;12.30;65.80;;;;;;5070839;28;20535;-69
2021/04/25 02:56:54;;;;;;;12.05;7.68;;;12.20;66.00;;;;;;5071585;28;20032;-70
2021/04/25 02:59:20;;;;;;;14.00;8.60;;;12.10;66.10;;;;;;5072028;28;20319;-71
2021/04/25 03:01:46;;;;;;;16.02;7.95;;;12.10;66.10;;;;;;5071929;28;20483;-71
2021/04/25 03:04:12;;;;;;;10.20;8.52;;;12.00;66.50;;;;;;5070749;28;20025;-70
2021/04/25 03:06:37;;;;;;;11.23;8.25;;;12.00;66.80;;;;;;5071250;28;20021;-71
2021/04/25 03:09:03;;;;;;;12.20;7.95;;;11.90;66.90;;;;;;5072051;28;20021;-70
2021/04/25 03:11:29;;;;;;;9.65;7.57;;;11.90;67.00;;;;;;5071556;28;20470;-71
2021/04/25 03:13:55;;;;;;;15.50;7.80;;;12.00;66.70;;;;;;5071518;28;20017;-70
2021/04/25 03:16:21;;;;;;;14.95;7.88;;;12.00;66.40;;;;;;5071158;28;20104;-70
2021/04/25 03:18:46;;;;;;;11.10;8.02;;;12.00;66.10;;;;;;5071212;28;20097;-70
2021/04/25 03:21:12;;;;;;;10.55;7.70;;;12.10;65.90;;;;;;5071601;28;20020;-70
2021/04/25 03:23:38;;;;;;;12.30;8.07;;;12.00;65.90;;;;;;5071234;28;20024;-71
2021/04/25 03:26:03;;;;;;;12.80;8.10;;;11.80;66.40;;;;;;5071418;28;20029;-71
2021/04/25 03:28:30;;;;;;;11.93;7.82;;;11.80;67.00;;;;;;5071754;28;20025;-72
2021/04/25 03:30:55;;;;;;;11.60;8.80;;;11.80;67.30;;;;;;5071494;28;20089;-72
2021/04/25 03:33:22;;;;;;;16.95;8.65;;;11.70;67.30;;;;;;5071036;28;20431;-70
2021/04/25 03:35:48;;;;;;;11.43;8.70;;;11.70;67.50;;;;;;5071259;28;20025;-70
2021/04/25 03:38:14;;;;;;;11.25;8.38;;;11.60;67.60;;;;;;5072089;28;20444;-71
2021/04/25 03:40:40;;;;;;;11.95;8.48;;;11.60;67.60;;;;;;5070846;28;20423;-70
2021/04/25 03:43:05;;;;;;;14.45;9.48;;;11.60;67.70;;;;;;5071649;28;20025;-72
2021/04/25 03:45:31;;;;;;;12.30;8.63;;;11.60;67.70;;;;;;5071194;28;20021;-71
2021/04/25 03:47:57;;;;;;;12.20;8.48;;;11.50;67.90;;;;;;5070862;28;20033;-71
2021/04/25 03:50:25;;;;;;;11.27;8.77;;;11.50;68.00;;;;;;5071041;28;20021;-70
2021/04/25 03:52:51;;;;;;;11.75;8.20;;;11.50;67.90;;;;;;5071000;28;20127;-70
2021/04/25 03:55:18;;;;;;;11.13;8.13;;;11.50;67.80;;;;;;5071027;28;20025;-71
2021/04/25 03:57:44;;;;;;;11.45;8.20;;;11.40;68.60;;;;;;5070717;28;20139;-71
2021/04/25 04:00:12;;;;;;;9.93;8.20;;;11.40;68.10;;;;;;5070894;28;20052;-72
2021/04/25 04:02:38;;;;;;;12.40;8.27;;;11.30;68.20;;;;;;5070752;28;20087;-70
2021/04/25 04:05:05;;;;;;;12.60;8.30;;;11.40;68.40;;;;;;5070695;28;20024;-71
2021/04/25 04:07:31;;;;;;;11.90;8.82;;;11.40;68.50;;;;;;5070478;28;20036;-70
2021/04/25 04:09:57;;;;;;;13.75;9.07;;;11.30;69.20;;;;;;5071078;28;20021;-71
2021/04/25 04:12:22;;;;;;;13.25;8.68;;;11.30;69.00;;;;;;5070722;28;20103;-71
2021/04/25 04:14:48;;;;;;;13.55;9.15;;;11.30;69.10;;;;;;5072243;28;20484;-71
2021/04/25 04:17:14;;;;;;;15.38;9.90;;;11.20;69.00;;;;;;5074739;28;20035;-70
2021/04/25 04:19:40;;;;;;;10.20;8.63;;;11.20;69.20;;;;;;5074582;28;20020;-71
2021/04/25 04:22:06;;;;;;;12.45;8.75;;;11.20;69.30;;;;;;5074733;28;20020;-71
2021/04/25 04:24:32;;;;;;;19.95;9.27;;;11.20;69.50;;;;;;5074619;28;20138;-70
2021/04/25 04:26:58;;;;;;;15.68;8.77;;;11.20;69.50;;;;;;5074589;28;20025;-71
2021/04/25 04:29:23;;;;;;;10.88;9.23;;;11.20;69.70;;;;;;5074190;28;20165;-71
2021/04/25 04:31:49;;;;;;;10.00;8.90;;;11.10;70.10;;;;;;5073790;28;20040;-71
2021/04/25 04:34:15;;;;;;;14.90;9.10;;;11.10;70.50;;;;;;5074490;28;20029;-71
2021/04/25 04:36:40;;;;;;;14.57;9.35;;;11.10;70.60;;;;;;5074168;28;20101;-71
2021/04/25 04:39:06;;;;;;;15.23;9.60;;;11.10;71.00;;;;;;5074168;28;20028;-71
2021/04/25 04:41:32;;;;;;;14.00;8.98;;;11.10;71.00;;;;;;5074830;28;20505;-72
2021/04/25 04:43:59;;;;;;;14.18;9.57;;;11.10;71.20;;;;;;5073223;28;20029;-70
2021/04/25 04:46:25;;;;;;;13.68;9.32;;;11.20;71.50;;;;;;5074712;28;20380;-71
2021/04/25 04:48:51;;;;;;;14.63;9.23;;;11.20;71.80;;;;;;5072499;28;20033;-71
2021/04/25 04:51:17;;;;;;;16.08;9.57;;;11.20;71.70;;;;;;5073889;28;20067;-70
2021/04/25 04:53:42;;;;;;;13.93;9.35;;;11.30;71.50;;;;;;5074440;28;20012;-71
2021/04/25 04:56:08;;;;;;;14.07;9.07;;;11.30;71.40;;;;;;5073466;28;20020;-70
2021/04/25 04:58:34;;;;;;;13.43;9.13;;;11.40;71.20;;;;;;5072768;28;20029;-71
2021/04/25 05:00:59;;;;;;;13.95;9.63;;;11.40;71.80;;;;;;5074487;28;20024;-71
2021/04/25 05:03:25;;;;;;;11.25;9.45;;;11.40;71.60;;;;;;5073839;28;20028;-71
2021/04/25 05:05:51;;;;;;;11.02;8.82;;;11.40;72.20;;;;;;5073956;28;20025;-71
2021/04/25 05:08:16;;;;;;;13.23;8.65;;;11.50;71.90;;;;;;5073907;28;20024;-72
2021/04/25 05:10:42;;;;;;;16.35;8.32;;;11.50;71.20;;;;;;5074069;28;20028;-72
2021/04/25 05:13:10;;;;;;;10.95;8.30;;;11.60;70.70;;;;;;5073549;28;20085;-71
2021/04/25 05:15:39;;;;;;;11.98;8.55;;;11.70;70.30;;;;;;5073650;28;20548;-71
2021/04/25 05:18:05;;;;;;;14.23;8.75;;;11.70;70.00;;;;;;5073687;28;20021;-72
2021/04/25 05:20:31;;;;;;;11.40;9.23;;;11.80;70.60;;;;;;5073952;28;20022;-71
2021/04/25 05:22:58;;;;;;;13.85;8.68;;;11.80;70.70;;;;;;5073328;28;20496;-71
2021/04/25 05:25:24;;;;;;;12.70;8.38;;;11.90;70.80;;;;;;5073050;28;20099;-71
2021/04/25 05:27:51;;;;;;;11.82;8.05;;;11.90;70.70;;;;;;5072891;28;20056;-73
2021/04/25 05:30:17;;;;;;;10.85;7.75;;;12.00;71.10;;;;;;5073418;28;20469;-73
2021/04/25 05:32:43;;;;;;;11.82;8.15;;;12.10;70.60;;;;;;5073323;28;20024;-73
2021/04/25 05:35:10;;;;;;;11.68;7.72;;;12.10;70.20;;;;;;5073461;28;20327;-72
2021/04/25 05:37:35;;;;;;;15.40;8.50;;;12.20;69.70;;;;;;5072047;28;20379;-73
2021/04/25 05:40:01;;;;;;;10.45;8.35;;;12.30;69.60;;;;;;5073649;28;20063;-71
2021/04/25 05:42:27;;;;;;;13.00;8.15;;;12.30;69.90;;;;;;5073149;28;20035;-73
2021/04/25 05:44:54;;;;;;;11.30;7.82;;;12.40;69.80;;;;;;5073212;28;20024;-73
2021/04/25 05:47:20;;;;;;;14.70;8.57;;;12.40;69.70;;;;;;5073019;28;20024;-72
2021/04/25 05:49:45;;;;;;;11.80;8.18;;;12.50;70.40;;;;;;5072891;28;20092;-71
2021/04/25 05:52:11;;;;;;;11.77;7.80;;;12.50;70.10;;;;;;5072808;28;20044;-70
2021/04/25 05:54:37;;;;;;;14.95;8.38;;;12.60;69.90;;;;;;5072756;28;20099;-71
2021/04/25 05:57:05;;;;;;;13.13;8.52;;;12.60;69.90;;;;;;5072634;28;20032;-72
2021/04/25 05:59:31;;;;;;;12.80;7.95;;;12.60;70.20;;;;;;5072915;28;20032;-71
2021/04/25 06:01:57;;;;;;;11.20;7.60;;;12.60;70.30;;;;;;5072742;28;20503;-72
2021/04/25 06:04:22;;;;;;;10.75;7.45;;;12.70;69.80;;;;;;5073024;28;20044;-72
2021/04/25 06:06:48;;;;;;;9.70;7.68;;;12.80;69.60;;;;;;5072786;28;20030;-72
2021/04/25 06:09:14;;;;;;;12.57;8.20;;;12.90;69.00;;;;;;5072691;28;20096;-71
2021/04/25 06:11:39;;;;;;;14.95;7.53;;;13.00;68.90;;;;;;5072718;28;20032;-72
2021/04/25 06:14:05;;;;;;;14.35;7.93;;;13.10;68.80;;;;;;5073781;28;20074;-71
2021/04/25 06:16:32;;;;;;;11.02;7.93;;;13.10;69.10;;;;;;5073694;28;20125;-70
2021/04/25 06:18:58;;;;;;;9.52;8.00;;;13.20;69.30;;;;;;5073038;28;20023;-71
2021/04/25 06:21:25;;;;;;;13.40;8.13;;;13.20;69.00;;;;;;5073753;28;20056;-71
2021/04/25 06:23:51;;;;;;;11.60;7.47;;;13.30;68.40;;;;;;5073928;28;20039;-72
2021/04/25 06:26:17;;;;;;;13.52;7.60;;;13.30;69.20;;;;;;5074200;28;20020;-71
2021/04/25 06:28:43;;;;;;;12.35;7.72;;;13.40;68.60;;;;;;5073971;28;20381;-72
2021/04/25 06:31:08;;;;;;;15.60;8.95;;;13.40;68.60;;;;;;5073998;28;20024;-71
2021/04/25 06:33:34;;;;;;;14.02;7.50;;;13.50;69.20;;;;;;5073965;28;20055;-73
2021/04/25 06:35:59;;;;;;;14.48;7.90;;;13.60;69.00;;;;;;5073886;28;20035;-72
2021/04/25 06:38:25;;;;;;;17.30;8.60;;;13.70;68.90;;;;;;5073745;28;20028;-72
2021/04/25 06:40:51;;;;;;;10.82;7.55;;;13.70;68.90;;;;;;5073951;28;20051;-71
2021/04/25 06:43:18;;;;;;;15.23;7.35;;;13.70;69.10;;;;;;5072159;28;20032;-72
2021/04/25 06:45:44;;;;;;;10.48;7.13;;;13.80;68.60;;;;;;5072325;28;20025;-72
2021/04/25 06:48:10;;;;;;;17.65;7.28;;;13.90;68.50;;;;;;5073535;28;20024;-73
2021/04/25 06:50:36;;;;;;;12.38;7.53;;;13.90;68.60;;;;;;5073795;28;20021;-73
2021/04/25 06:53:01;;;;;;;12.32;7.18;;;14.00;68.80;;;;;;5073885;28;20547;-73
2021/04/25 06:55:27;;;;;;;8.18;6.47;;;14.10;69.30;;;;;;5074110;28;20016;-71
2021/04/25 06:57:54;;;;;;;10.15;6.95;;;14.10;68.90;;;;;;5073639;28;20157;-73
2021/04/25 07:00:22;;;;;;;7.53;6.70;;;14.20;69.40;;;;;;5073851;28;20024;-74
2021/04/25 07:02:48;;;;;;;11.43;6.22;;;14.30;68.10;;;;;;5073880;28;20017;-73
2021/04/25 07:05:14;;;;;;;11.82;7.38;;;14.40;68.60;;;;;;5073666;28;20032;-72
2021/04/25 07:07:39;;;;;;;9.73;6.45;;;14.40;67.60;;;;;;5073445;28;20064;-72
2021/04/25 07:10:07;;;;;;;7.40;6.22;;;14.50;66.90;;;;;;5073419;28;20128;-73
2021/04/25 07:12:33;;;;;;;11.35;6.05;;;14.50;67.10;;;;;;5073421;28;20020;-72
2021/04/25 07:14:59;;;;;;;9.48;6.43;;;14.60;67.40;;;;;;5072237;28;20491;-73
2021/04/25 07:17:25;;;;;;;12.45;6.15;;;14.70;67.00;;;;;;5073544;28;20036;-73
2021/04/25 07:19:51;;;;;;;13.57;6.57;;;14.70;66.90;;;;;;5073471;28;20023;-74
2021/04/25 07:22:17;;;;;;;11.50;7.13;;;14.80;66.70;;;;;;5073565;28;20103;-73
2021/04/25 07:24:43;;;;;;;9.45;5.65;;;14.90;66.60;;;;;;5073515;28;20040;-72
2021/04/25 07:27:08;;;;;;;9.88;5.78;;;15.00;65.70;;;;;;5072173;28;20028;-71
2021/04/25 07:29:34;;;;;;;9.60;5.95;;;15.00;65.70;;;;;;5073372;28;20381;-72
2021/04/25 07:32:00;;;;;;;13.10;6.47;;;15.10;65.90;;;;;;5073419;28;20025;-72
2021/04/25 07:34:26;;;;;;;11.68;5.45;;;15.20;65.80;;;;;;5073267;28;20020;-71
2021/04/25 07:36:53;;;;;;;9.15;5.35;;;15.20;65.20;;;;;;5073541;28;20138;-72
2021/04/25 07:39:19;;;;;;;9.27;5.72;;;15.30;65.20;;;;;;5073195;28;20020;-71
2021/04/25 07:41:46;;;;;;;7.55;5.25;;;15.40;65.00;;;;;;5073022;28;20021;-71
2021/04/25 07:44:11;;;;;;;14.93;6.05;;;15.40;64.70;;;;;;5073122;28;20094;-72
2021/04/25 07:46:37;;;;;;;11.70;5.80;;;15.50;64.70;;;;;;5073040;28;20052;-72
2021/04/25 07:49:04;;;;;;;9.65;5.43;;;15.80;79.40;;;;;;5072552;28;20379;-72
2021/04/25 07:51:30;;;;;;;9.45;5.50;;;;;;;;;;5071621;28;20044;-73
2021/04/25 07:53:58;;;;;;;9.60;5.22;;;15.80;64.00;;;;;;5073081;28;20112;-72
2021/04/25 07:56:24;;;;;;;10.75;5.57;;;15.80;63.90;;;;;;5071896;28;20126;-73
2021/04/25 07:58:50;;;;;;;9.18;6.05;;;15.90;64.50;;;;;;5073098;28;20020;-73
2021/04/25 08:01:16;;;;;;;8.05;5.70;;;16.00;63.90;;;;;;5072898;28;20384;-71
2021/04/25 08:03:42;;;;;;;11.02;5.57;;;16.10;63.60;;;;;;5072970;28;20465;-73
2021/04/25 08:06:08;;;;;;;10.80;6.13;;;16.20;63.00;;;;;;5072803;28;20074;-73
2021/04/25 08:08:34;;;;;;;8.00;5.43;;;16.30;63.00;;;;;;5073102;28;20059;-72
2021/04/25 08:11:00;;;;;;;10.10;5.53;;;16.40;62.70;;;;;;5072851;28;20063;-72
2021/04/25 08:13:26;;;;;;;8.38;5.43;;;16.40;63.10;;;;;;5072892;28;20035;-73
2021/04/25 08:15:51;;;;;;;9.23;5.68;;;16.50;62.90;;;;;;5072672;28;20028;-74
2021/04/25 08:18:17;;;;;;;9.80;5.50;;;16.60;61.80;;;;;;5073070;28;20454;-72
2021/04/25 08:20:43;;;;;;;12.23;5.07;;;16.70;61.80;;;;;;5071551;28;20017;-72
2021/04/25 08:23:09;;;;;;;11.93;5.72;;;16.70;61.50;;;;;;5072752;28;20496;-73
2021/04/25 08:25:34;;;;;;;13.10;6.28;;;16.80;59.90;;;;;;5072664;28;20129;-73
2021/04/25 08:28:00;;;;;;;6.90;5.07;;;16.90;60.50;;;;;;5072818;28;20031;-72
2021/04/25 08:30:26;;;;;;;10.27;5.60;;;17.00;61.90;;;;;;5071125;28;20022;-74
2021/04/25 08:32:52;;;;;;;15.32;5.50;;;17.00;62.00;;;;;;5072759;28;20100;-72
2021/04/25 08:35:19;;;;;;;10.55;5.18;;;17.10;60.60;;;;;;5072744;28;20215;-72
2021/04/25 08:37:46;;;;;;;8.45;5.90;;;17.20;60.70;;;;;;5072292;28;20039;-72
2021/04/25 08:40:12;;;;;;;12.15;5.78;;;17.30;59.60;;;;;;5072279;28;20028;-72
2021/04/25 08:42:39;;;;;;;15.13;6.13;;;17.30;59.30;;;;;;5072366;28;20026;-74
2021/04/25 08:45:06;;;;;;;9.77;6.20;;;17.40;58.20;;;;;;5072674;28;20024;-74
2021/04/25 08:47:46;;;;;;;12.20;5.60;;;17.50;57.00;;;;;;5072522;28;20024;-71
2021/04/25 08:50:13;;;;;;;15.77;6.70;;;17.60;57.90;;;;;;5071762;28;20388;-72
2021/04/25 08:52:39;;;;;;;11.88;6.63;;;17.70;55.70;;;;;;5071956;28;20031;-74
2021/04/25 08:55:06;;;;;;;11.95;6.65;;;17.80;56.20;;;;;;5072379;28;20046;-73
2021/04/25 08:57:31;;;;;;;20.65;6.35;;;17.80;56.80;;;;;;5072392;28;20198;-73
2021/04/25 08:59:57;;;;;;;13.38;5.97;;;17.80;56.80;;;;;;5072408;28;20100;-73
2021/04/25 09:02:23;;;;;;;14.15;6.40;;;17.90;57.30;;;;;;5074618;28;20103;-73
2021/04/25 09:04:48;;;;;;;12.88;6.72;;;18.00;56.60;;;;;;5074788;28;20546;-73
2021/04/25 09:07:16;;;;;;;10.70;6.15;;;18.10;55.10;;;;;;5076041;28;20035;-71
2021/04/25 09:09:45;;;;;;;12.60;6.32;;;18.20;55.10;;;;;;5075678;28;20029;-72
2021/04/25 09:12:13;;;;;;;12.63;6.90;;;18.30;53.40;;;;;;5075789;28;20078;-72
2021/04/25 09:14:40;;;;;;;15.65;6.32;;;18.40;53.70;;;;;;5076058;28;20021;-71
2021/04/25 09:17:07;;;;;;;12.00;5.70;;;18.50;54.40;;;;;;5075721;28;20382;-72
2021/04/25 09:19:55;;;;;;;9.00;5.93;;;18.60;55.00;;;;;;5075671;28;20020;-72
2021/04/25 09:22:23;;;;;;;14.55;6.32;;;18.70;54.90;;;;;;5076021;28;20094;-72
2021/04/25 09:25:04;;;;;;;13.20;6.30;;;18.70;53.90;;;;;;5091056;28;20048;-71
2021/04/25 09:27:30;;;;;;;15.55;6.70;;;18.90;54.30;;;;;;5074356;28;20078;-72
2021/04/25 09:29:59;;;;;;;14.27;6.25;;;19.00;52.80;;;;;;5075289;28;20032;-72
2021/04/25 09:32:30;;;;;;;12.35;6.75;;;19.10;53.20;;;;;;5075535;28;20035;-72
2021/04/25 09:35:17;;;;;;;11.02;6.15;;;19.10;51.30;;;;;;5074437;28;20035;-73
2021/04/25 09:37:46;;;;;;;9.93;6.20;;;19.20;51.00;;;;;;5075628;28;20036;-73
2021/04/25 09:40:16;;;;;;;13.45;6.60;;;19.30;51.10;;;;;;5075420;28;20066;-74
2021/04/25 09:42:58;;;;;;;13.93;6.63;;;19.40;51.40;;;;;;5075118;28;20393;-74
2021/04/25 09:45:26;;;;;;;14.50;6.53;;;19.40;51.60;;;;;;5075332;28;20021;-73
2021/04/25 09:47:52;;;;;;;14.38;6.88;;;19.50;49.40;;;;;;5075031;28;20021;-74
2021/04/25 09:50:19;;;;;;;12.98;6.82;;;19.60;49.10;;;;;;5075352;28;20111;-74
2021/04/25 09:52:48;;;;;;;11.27;7.32;;;19.60;49.70;;;;;;5075059;28;20032;-73
2021/04/25 09:55:28;;;;;;;15.18;6.70;;;19.70;49.30;;;;;;5075126;28;20446;-73
2021/04/25 09:58:03;;;;;;;14.77;7.78;;;19.80;49.90;;;;;;5074908;28;20037;-74
2021/04/25 10:00:40;;;;;;;18.27;10.38;;;19.80;52.70;;;;;;5074798;28;20013;-73
2021/04/25 10:03:11;;;;;;;16.48;8.80;;;19.90;49.40;;;;;;5074829;28;20103;-73
2021/04/25 10:05:39;;;;;;;14.18;9.88;;;20.00;48.80;;;;;;5074803;28;20032;-73
2021/04/25 10:08:05;;;;;;;11.57;8.27;;;20.10;48.00;;;;;;5074934;28;20461;-74
2021/04/25 10:10:32;;;;;;;11.88;7.93;;;20.20;50.10;;;;;;5073394;28;20054;-73
2021/04/25 10:12:59;;;;;;;16.00;7.32;;;20.20;50.00;;;;;;5074266;28;20389;-74
2021/04/25 10:15:25;;;;;;;12.75;7.28;;;20.30;49.80;;;;;;5074937;28;20031;-74
2021/04/25 10:17:54;;;;;;;15.25;8.20;;;20.40;48.10;;;;;;5073195;28;20044;-74
2021/04/25 10:20:21;;;;;;;15.75;7.55;;;20.50;49.80;;;;;;5074892;28;20032;-74
2021/04/25 10:22:49;;;;;;;16.23;7.45;;;20.60;48.90;;;;;;5074559;28;20025;-73
2021/04/25 10:25:17;;;;;;;11.85;6.93;;;20.70;45.50;;;;;;5074435;28;20076;-72
2021/04/25 10:28:24;;;;;;;12.65;7.32;;;20.70;46.60;;;;;;5074627;28;20012;-72
2021/04/25 10:30:50;;;;;;;9.43;7.20;;;20.80;48.10;;;;;;5073620;28;20037;-72
2021/04/25 10:33:15;;;;;;;14.02;7.22;;;20.90;47.40;;;;;;5074188;28;20039;-72
2021/04/25 10:35:54;;;;;;;10.05;6.75;;;21.00;46.80;;;;;;5074319;28;20092;-72
2021/04/25 10:38:36;;;;;;;12.43;7.35;;;21.10;47.40;;;;;;5074314;28;20066;-72
2021/04/25 10:41:22;;;;;;;10.38;6.70;;;21.20;46.10;;;;;;5073856;28;20051;-72
2021/04/25 10:44:05;;;;;;;11.18;6.50;;;21.30;47.00;;;;;;5074153;28;20385;-72
2021/04/25 10:46:53;;;;;;;8.95;5.88;;;21.40;44.10;;;;;;5072995;28;20040;-71
2021/04/25 10:49:38;;;;;;;8.30;5.40;;;21.40;44.00;;;;;;5073464;28;20033;-72
2021/04/25 10:52:19;;;;;;;16.33;6.15;;;21.40;46.30;;;;;;5073813;28;20020;-72
2021/04/25 10:55:10;;;;;;;10.95;5.30;;;21.50;41.90;;;;;;5073725;28;20025;-72
2021/04/25 10:58:01;;;;;;;12.63;5.53;;;21.50;42.50;;;;;;5071567;28;20044;-72
2021/04/25 11:00:30;;;;;;;9.95;6.35;;;21.50;43.20;;;;;;5069840;28;20363;-72
2021/04/25 11:02:56;;;;;;;11.15;5.75;;;21.60;44.30;;;;;;5071243;28;20037;-72
2021/04/25 11:05:41;;;;;;;12.77;6.13;;;21.70;42.10;;;;;;5073548;28;20376;-73
2021/04/25 11:08:13;;;;;;;11.15;6.55;;;21.70;43.00;;;;;;5072125;28;20094;-72
2021/04/25 11:10:55;;;;;;;9.93;6.63;;;21.80;42.60;;;;;;5070759;28;20048;-71
2021/04/25 11:16:07;;;;;;;14.30;5.72;;;21.90;44.00;;;;;;5073157;28;20083;-71
2021/04/25 11:18:46;;;;;;;9.88;5.68;;;22.00;43.30;;;;;;5073525;28;20154;-72
2021/04/25 11:21:27;;;;;;;11.82;6.65;;;22.20;45.90;;;;;;5072002;28;20052;-72
2021/04/25 11:23:58;;;;;;;12.52;6.30;;;22.30;42.90;;;;;;5072120;28;20060;-71
2021/04/25 11:26:36;;;;;;;8.15;5.70;;;22.30;41.70;;;;;;5073073;28;20032;-72
2021/04/25 11:29:05;;;;;;;12.65;6.75;;;22.40;42.50;;;;;;5071685;28;20102;-72
2021/04/25 11:31:46;;;;;;;17.88;9.60;;;22.50;42.00;;;;;;5044530;28;20112;-72
2021/04/25 11:34:34;;;;;;;10.90;6.57;;;22.50;40.50;;;;;;5031494;28;20033;-72
2021/04/25 11:37:18;;;;;;;13.15;6.18;;;22.50;41.40;;;;;;5032719;28;20060;-72
2021/04/25 11:39:48;;;;;;;8.13;5.07;;;22.50;38.90;;;;;;5032554;28;20025;-72
2021/04/25 11:42:31;;;;;;;13.32;5.70;;;22.50;42.90;;;;;;5042049;28;20382;-71
2021/04/25 11:45:03;;;;;;;8.82;5.03;;;22.60;41.20;;;;;;5039795;28;20439;-71
2021/04/25 11:47:31;;;;;;;13.82;5.30;;;22.70;41.10;;;;;;5038368;28;20389;-72
2021/04/25 11:49:58;;;;;;;12.55;6.07;;;22.70;41.50;;;;;;5038065;28;20091;-72
2021/04/25 11:52:34;;;;;;;10.88;6.50;;;22.70;42.50;;;;;;5041483;28;20027;-72
2021/04/25 11:55:13;;;;;;;11.85;6.55;;;22.80;43.60;;;;;;5042060;28;20108;-71
2021/04/25 11:57:41;;;;;;;9.80;5.75;;;22.90;43.40;;;;;;5042248;28;20083;-71
2021/04/25 12:00:16;;;;;;;7.75;5.70;;;22.90;43.50;;;;;;5042379;28;20017;-73
2021/04/25 12:02:42;;;;;;;14.82;6.70;;;23.00;44.20;;;;;;5042572;28;20444;-72
2021/04/25 12:05:28;;;;;;;16.50;7.30;;;23.10;42.00;;;;;;5041046;28;20093;-71
2021/04/25 12:08:07;;;;;;;13.75;6.22;;;23.10;42.30;;;;;;5040568;28;20029;-72
2021/04/25 12:10:33;;;;;;;12.10;6.35;;;23.10;43.10;;;;;;5040247;28;20036;-72
2021/04/25 12:13:14;;;;;;;11.20;7.00;;;23.20;42.40;;;;;;5041428;28;20026;-72
2021/04/25 12:15:55;;;;;;;11.83;6.20;;;23.20;42.30;;;;;;5043069;28;20381;-72
2021/04/25 12:18:32;;;;;;;22.48;6.85;;;23.20;43.40;;;;;;5042468;28;20397;-72
2021/04/25 12:21:05;;;;;;;9.88;6.55;;;23.40;42.10;;;;;;5042756;28;20021;-72
2021/04/25 12:23:51;;;;;;;10.05;5.95;;;23.40;42.70;;;;;;5043125;28;20477;-72
2021/04/25 12:26:25;;;;;;;9.75;6.28;;;23.40;42.80;;;;;;5041900;28;20123;-72
2021/04/25 12:28:53;;;;;;;8.85;5.63;;;23.50;41.00;;;;;;5042318;28;20053;-71
2021/04/25 12:31:23;;;;;;;15.23;6.63;;;23.50;41.40;;;;;;5041987;28;20108;-71
2021/04/25 12:33:54;;;;;;;11.55;5.72;;;23.60;42.00;;;;;;5040806;28;20014;-70
2021/04/25 12:36:25;;;;;;;9.30;5.80;;;23.60;42.10;;;;;;5042876;28;20025;-70
2021/04/25 12:38:56;;;;;;;16.00;6.15;;;23.60;43.80;;;;;;5046341;28;20049;-70
2021/04/25 12:41:23;;;;;;;13.73;6.00;;;23.70;40.60;;;;;;5045983;28;20090;-70
2021/04/25 12:43:49;;;;;;;9.73;5.40;;;23.80;42.70;;;;;;5043830;28;20021;-70
2021/04/25 12:46:24;;;;;;;10.52;6.50;;;23.80;42.90;;;;;;5045991;28;20142;-70